sensor_id;sensor_type;location;lat;lon;timestamp;pressure;altitude;pressure_sealevel;temperature;humidity
12219;BME280;6172;42.646;23.344;2023-03-14T00:01:48;94797.00;;;2.16;75.79
12219;BME280;6172;42.646;23.344;2023-03-14T00:04:17;94789.41;;;1.80;79.01
12219;BME280;6172;42.646;23.344;2023-03-14T00:06:44;94784.03;;;1.80;84.94
12219;BME280;6172;42.646;23.344;2023-03-14T00:09:15;94776.53;;;1.89;81.61
12219;BME280;6172;42.646;23.344;2023-03-14T00:11:56;94782.69;;;1.71;85.77
12219;BME280;6172;42.646;23.344;2023-03-14T00:14:24;94774.56;;;1.67;88.73
12219;BME280;6172;42.646;23.344;2023-03-14T00:16:50;94782.72;;;1.52;93.53
12219;BME280;6172;42.646;23.344;2023-03-14T00:19:18;94774.88;;;1.43;96.45
12219;BME280;6172;42.646;23.344;2023-03-14T00:21:45;94767.28;;;0.92;100.00
12219;BME280;6172;42.646;23.344;2023-03-14T00:24:12;94761.69;;;1.00;98.70
12219;BME280;6172;42.646;23.344;2023-03-14T00:26:39;94758.66;;;1.21;93.93
12219;BME280;6172;42.646;23.344;2023-03-14T00:29:07;94745.25;;;1.21;90.16
12219;BME280;6172;42.646;23.344;2023-03-14T00:31:34;94746.81;;;1.22;94.45
12219;BME280;6172;42.646;23.344;2023-03-14T00:34:01;94742.66;;;1.24;91.10
12219;BME280;6172;42.646;23.344;2023-03-14T00:36:28;94735.56;;;1.35;84.79
12219;BME280;6172;42.646;23.344;2023-03-14T00:38:55;94739.31;;;1.31;88.17
12219;BME280;6172;42.646;23.344;2023-03-14T00:41:22;94725.91;;;1.12;91.96
12219;BME280;6172;42.646;23.344;2023-03-14T00:43:50;94729.34;;;1.31;92.74
12219;BME280;6172;42.646;23.344;2023-03-14T00:46:18;94724.69;;;1.28;94.50
12219;BME280;6172;42.646;23.344;2023-03-14T00:48:48;94716.28;;;1.11;96.12
12219;BME280;6172;42.646;23.344;2023-03-14T00:51:15;94725.84;;;1.27;95.97
12219;BME280;6172;42.646;23.344;2023-03-14T00:53:42;94729.50;;;1.38;95.82
12219;BME280;6172;42.646;23.344;2023-03-14T00:56:11;94721.22;;;1.28;95.79
12219;BME280;6172;42.646;23.344;2023-03-14T00:58:38;94718.75;;;1.38;94.17
12219;BME280;6172;42.646;23.344;2023-03-14T01:01:06;94725.63;;;1.36;91.41
12219;BME280;6172;42.646;23.344;2023-03-14T01:03:35;94721.56;;;1.26;95.10
12219;BME280;6172;42.646;23.344;2023-03-14T01:06:11;94716.22;;;1.07;100.00
12219;BME280;6172;42.646;23.344;2023-03-14T01:08:39;94715.94;;;1.12;100.00
12219;BME280;6172;42.646;23.344;2023-03-14T01:11:08;94720.59;;;1.15;100.00
12219;BME280;6172;42.646;23.344;2023-03-14T01:13:36;94726.41;;;1.17;100.00
12219;BME280;6172;42.646;23.344;2023-03-14T01:16:05;94709.84;;;1.34;100.00
12219;BME280;6172;42.646;23.344;2023-03-14T01:18:35;94711.41;;;1.16;100.00
12219;BME280;6172;42.646;23.344;2023-03-14T01:21:02;94714.09;;;1.16;100.00
12219;BME280;6172;42.646;23.344;2023-03-14T01:23:29;94695.59;;;1.30;100.00
12219;BME280;6172;42.646;23.344;2023-03-14T01:25:56;94701.50;;;1.39;100.00
12219;BME280;6172;42.646;23.344;2023-03-14T01:28:23;94696.56;;;1.41;100.00
12219;BME280;6172;42.646;23.344;2023-03-14T01:30:51;94696.88;;;1.17;100.00
12219;BME280;6172;42.646;23.344;2023-03-14T01:33:18;94687.81;;;1.25;100.00
12219;BME280;6172;42.646;23.344;2023-03-14T01:35:49;94689.09;;;1.12;100.00
12219;BME280;6172;42.646;23.344;2023-03-14T01:38:16;94693.97;;;1.07;100.00
12219;BME280;6172;42.646;23.344;2023-03-14T01:40:43;94693.34;;;1.13;100.00
12219;BME280;6172;42.646;23.344;2023-03-14T01:43:15;94692.81;;;1.08;100.00
12219;BME280;6172;42.646;23.344;2023-03-14T01:48:52;94682.47;;;0.87;100.00
12219;BME280;6172;42.646;23.344;2023-03-14T01:51:26;94681.03;;;0.93;100.00
12219;BME280;6172;42.646;23.344;2023-03-14T01:54:00;94677.72;;;0.80;100.00
12219;BME280;6172;42.646;23.344;2023-03-14T01:56:30;94684.44;;;0.90;100.00
12219;BME280;6172;42.646;23.344;2023-03-14T01:58:58;94678.63;;;0.88;100.00
12219;BME280;6172;42.646;23.344;2023-03-14T02:01:26;94671.16;;;0.78;100.00
12219;BME280;6172;42.646;23.344;2023-03-14T02:03:56;94671.72;;;0.68;100.00
12219;BME280;6172;42.646;23.344;2023-03-14T02:06:30;94674.97;;;0.77;100.00
12219;BME280;6172;42.646;23.344;2023-03-14T02:09:00;94682.09;;;0.69;100.00
12219;BME280;6172;42.646;23.344;2023-03-14T02:11:28;94676.81;;;0.92;100.00
12219;BME280;6172;42.646;23.344;2023-03-14T02:13:57;94671.22;;;0.81;100.00
12219;BME280;6172;42.646;23.344;2023-03-14T02:16:26;94668.81;;;0.76;100.00
12219;BME280;6172;42.646;23.344;2023-03-14T02:18:53;94660.47;;;0.81;100.00
12219;BME280;6172;42.646;23.344;2023-03-14T02:21:26;94664.59;;;0.75;100.00
12219;BME280;6172;42.646;23.344;2023-03-14T02:24:04;94667.47;;;0.67;100.00
12219;BME280;6172;42.646;23.344;2023-03-14T02:26:38;94662.03;;;0.63;100.00
12219;BME280;6172;42.646;23.344;2023-03-14T02:29:09;94653.50;;;0.58;100.00
12219;BME280;6172;42.646;23.344;2023-03-14T02:31:36;94661.25;;;0.63;100.00
12219;BME280;6172;42.646;23.344;2023-03-14T02:34:03;94661.81;;;0.72;100.00
12219;BME280;6172;42.646;23.344;2023-03-14T02:36:30;94653.78;;;0.72;100.00
12219;BME280;6172;42.646;23.344;2023-03-14T02:39:03;94665.22;;;0.69;100.00
12219;BME280;6172;42.646;23.344;2023-03-14T02:41:34;94663.38;;;0.54;100.00
12219;BME280;6172;42.646;23.344;2023-03-14T02:44:01;94666.69;;;0.66;100.00
12219;BME280;6172;42.646;23.344;2023-03-14T02:46:29;94668.94;;;0.64;100.00
12219;BME280;6172;42.646;23.344;2023-03-14T02:48:58;94674.78;;;0.51;100.00
12219;BME280;6172;42.646;23.344;2023-03-14T02:51:28;94668.72;;;0.54;100.00
12219;BME280;6172;42.646;23.344;2023-03-14T02:53:56;94668.34;;;0.36;100.00
12219;BME280;6172;42.646;23.344;2023-03-14T02:56:23;94669.00;;;0.49;100.00
12219;BME280;6172;42.646;23.344;2023-03-14T02:58:50;94671.06;;;0.55;100.00
12219;BME280;6172;42.646;23.344;2023-03-14T03:01:17;94684.38;;;0.52;100.00
12219;BME280;6172;42.646;23.344;2023-03-14T03:03:48;94674.84;;;0.54;100.00
12219;BME280;6172;42.646;23.344;2023-03-14T03:06:15;94673.41;;;0.57;100.00
12219;BME280;6172;42.646;23.344;2023-03-14T03:08:42;94676.44;;;0.55;100.00
12219;BME280;6172;42.646;23.344;2023-03-14T03:11:09;94673.75;;;0.40;100.00
12219;BME280;6172;42.646;23.344;2023-03-14T03:13:36;94680.44;;;0.30;100.00
12219;BME280;6172;42.646;23.344;2023-03-14T03:16:04;94671.22;;;0.28;100.00
12219;BME280;6172;42.646;23.344;2023-03-14T03:18:31;94673.59;;;0.33;100.00
12219;BME280;6172;42.646;23.344;2023-03-14T03:21:01;94671.16;;;0.43;100.00
12219;BME280;6172;42.646;23.344;2023-03-14T03:23:28;94672.91;;;0.36;100.00
12219;BME280;6172;42.646;23.344;2023-03-14T03:25:55;94673.97;;;0.16;100.00
12219;BME280;6172;42.646;23.344;2023-03-14T03:28:22;94671.31;;;0.00;100.00
12219;BME280;6172;42.646;23.344;2023-03-14T03:30:49;94675.38;;;-0.06;100.00
12219;BME280;6172;42.646;23.344;2023-03-14T03:33:16;94676.69;;;0.00;100.00
12219;BME280;6172;42.646;23.344;2023-03-14T03:35:45;94666.22;;;-0.05;100.00
12219;BME280;6172;42.646;23.344;2023-03-14T03:38:14;94671.75;;;-0.13;100.00
12219;BME280;6172;42.646;23.344;2023-03-14T03:40:42;94669.97;;;-0.09;100.00
12219;BME280;6172;42.646;23.344;2023-03-14T03:43:09;94673.50;;;-0.05;100.00
12219;BME280;6172;42.646;23.344;2023-03-14T03:45:36;94673.16;;;-0.04;100.00
12219;BME280;6172;42.646;23.344;2023-03-14T03:48:03;94670.47;;;-0.04;100.00
12219;BME280;6172;42.646;23.344;2023-03-14T03:50:30;94680.75;;;-0.21;100.00
12219;BME280;6172;42.646;23.344;2023-03-14T03:52:57;94678.50;;;-0.19;100.00
12219;BME280;6172;42.646;23.344;2023-03-14T03:55:26;94685.25;;;-0.10;100.00
12219;BME280;6172;42.646;23.344;2023-03-14T03:57:53;94691.72;;;-0.11;100.00
12219;BME280;6172;42.646;23.344;2023-03-14T04:00:20;94691.56;;;-0.02;100.00
12219;BME280;6172;42.646;23.344;2023-03-14T04:02:47;94692.66;;;-0.03;100.00
12219;BME280;6172;42.646;23.344;2023-03-14T04:05:14;94685.25;;;-0.10;100.00
12219;BME280;6172;42.646;23.344;2023-03-14T04:07:41;94684.72;;;-0.15;100.00
12219;BME280;6172;42.646;23.344;2023-03-14T04:10:09;94682.56;;;-0.10;100.00
12219;BME280;6172;42.646;23.344;2023-03-14T04:12:37;94678.34;;;-0.11;100.00
12219;BME280;6172;42.646;23.344;2023-03-14T04:15:05;94683.16;;;-0.16;100.00
12219;BME280;6172;42.646;23.344;2023-03-14T04:17:32;94675.72;;;-0.07;100.00
12219;BME280;6172;42.646;23.344;2023-03-14T04:20:00;94677.56;;;-0.11;100.00
12219;BME280;6172;42.646;23.344;2023-03-14T04:22:26;94668.91;;;-0.20;100.00
12219;BME280;6172;42.646;23.344;2023-03-14T04:24:53;94673.34;;;-0.12;100.00
12219;BME280;6172;42.646;23.344;2023-03-14T04:27:20;94663.03;;;-0.10;100.00
12219;BME280;6172;42.646;23.344;2023-03-14T04:29:48;94656.56;;;-0.09;100.00
12219;BME280;6172;42.646;23.344;2023-03-14T04:32:15;94649.75;;;-0.22;100.00
12219;BME280;6172;42.646;23.344;2023-03-14T04:34:42;94655.00;;;-0.10;100.00
12219;BME280;6172;42.646;23.344;2023-03-14T04:37:09;94645.13;;;-0.06;100.00
12219;BME280;6172;42.646;23.344;2023-03-14T04:39:36;94654.47;;;-0.00;100.00
12219;BME280;6172;42.646;23.344;2023-03-14T04:42:03;94641.94;;;-0.12;100.00
12219;BME280;6172;42.646;23.344;2023-03-14T04:44:30;94624.00;;;-0.42;100.00
12219;BME280;6172;42.646;23.344;2023-03-14T04:46:58;94637.72;;;-0.28;100.00
12219;BME280;6172;42.646;23.344;2023-03-14T04:49:25;94634.88;;;-0.35;100.00
12219;BME280;6172;42.646;23.344;2023-03-14T04:51:52;94640.69;;;-0.18;100.00
12219;BME280;6172;42.646;23.344;2023-03-14T04:54:19;94640.31;;;-0.32;100.00
12219;BME280;6172;42.646;23.344;2023-03-14T04:56:46;94631.41;;;-0.20;100.00
12219;BME280;6172;42.646;23.344;2023-03-14T04:59:13;94622.78;;;-0.14;100.00
12219;BME280;6172;42.646;23.344;2023-03-14T05:01:40;94631.53;;;-0.32;100.00
12219;BME280;6172;42.646;23.344;2023-03-14T05:04:09;94617.19;;;-0.40;100.00
12219;BME280;6172;42.646;23.344;2023-03-14T05:06:35;94628.50;;;-0.31;100.00
12219;BME280;6172;42.646;23.344;2023-03-14T05:09:03;94629.53;;;-0.35;100.00
12219;BME280;6172;42.646;23.344;2023-03-14T05:11:32;94631.34;;;-0.39;100.00
12219;BME280;6172;42.646;23.344;2023-03-14T05:13:59;94628.81;;;-0.48;100.00
12219;BME280;6172;42.646;23.344;2023-03-14T05:16:26;94631.34;;;-0.39;100.00
12219;BME280;6172;42.646;23.344;2023-03-14T05:18:54;94633.84;;;-0.31;100.00
12219;BME280;6172;42.646;23.344;2023-03-14T05:21:22;94624.19;;;-0.35;100.00
12219;BME280;6172;42.646;23.344;2023-03-14T05:23:49;94613.03;;;-0.37;100.00
12219;BME280;6172;42.646;23.344;2023-03-14T05:26:16;94633.56;;;-0.10;100.00
12219;BME280;6172;42.646;23.344;2023-03-14T05:28:43;94621.22;;;-0.15;100.00
12219;BME280;6172;42.646;23.344;2023-03-14T05:31:10;94619.06;;;-0.09;100.00
12219;BME280;6172;42.646;23.344;2023-03-14T05:33:37;94621.09;;;0.13;100.00
12219;BME280;6172;42.646;23.344;2023-03-14T05:36:05;94619.44;;;0.24;100.00
12219;BME280;6172;42.646;23.344;2023-03-14T05:38:33;94621.72;;;0.41;100.00
12219;BME280;6172;42.646;23.344;2023-03-14T05:41:00;94619.03;;;0.60;100.00
12219;BME280;6172;42.646;23.344;2023-03-14T05:43:27;94616.00;;;0.61;100.00
12219;BME280;6172;42.646;23.344;2023-03-14T05:45:54;94603.66;;;0.76;100.00
12219;BME280;6172;42.646;23.344;2023-03-14T05:48:21;94621.72;;;0.79;100.00
12219;BME280;6172;42.646;23.344;2023-03-14T05:50:57;94616.00;;;0.80;100.00
12219;BME280;6172;42.646;23.344;2023-03-14T05:53:24;94624.53;;;1.05;100.00
12219;BME280;6172;42.646;23.344;2023-03-14T05:55:54;94617.25;;;2.18;100.00
12219;BME280;6172;42.646;23.344;2023-03-14T05:58:22;94613.53;;;3.92;83.25
12219;BME280;6172;42.646;23.344;2023-03-14T06:00:49;94611.16;;;5.09;65.93
12219;BME280;6172;42.646;23.344;2023-03-14T06:03:16;94610.97;;;6.61;58.19
12219;BME280;6172;42.646;23.344;2023-03-14T06:05:43;94603.47;;;8.78;50.90
12219;BME280;6172;42.646;23.344;2023-03-14T06:08:11;94598.75;;;9.19;45.30
12219;BME280;6172;42.646;23.344;2023-03-14T06:10:38;94594.16;;;9.43;44.14
12219;BME280;6172;42.646;23.344;2023-03-14T06:13:07;94595.53;;;10.61;40.70
12219;BME280;6172;42.646;23.344;2023-03-14T06:15:34;94590.41;;;9.63;41.97
12219;BME280;6172;42.646;23.344;2023-03-14T06:18:02;94592.38;;;8.14;43.14
12219;BME280;6172;42.646;23.344;2023-03-14T06:20:29;94604.38;;;6.41;48.03
12219;BME280;6172;42.646;23.344;2023-03-14T06:22:55;94602.47;;;6.00;49.22
12219;BME280;6172;42.646;23.344;2023-03-14T06:25:22;94604.63;;;7.85;46.55
12219;BME280;6172;42.646;23.344;2023-03-14T06:27:49;94607.34;;;7.82;45.62
12219;BME280;6172;42.646;23.344;2023-03-14T06:30:18;94603.69;;;8.54;44.47
12219;BME280;6172;42.646;23.344;2023-03-14T06:32:44;94608.50;;;7.84;45.79
12219;BME280;6172;42.646;23.344;2023-03-14T06:35:14;94603.78;;;8.47;45.43
12219;BME280;6172;42.646;23.344;2023-03-14T06:37:41;94602.91;;;8.57;43.99
12219;BME280;6172;42.646;23.344;2023-03-14T06:40:09;94600.00;;;9.11;43.27
12219;BME280;6172;42.646;23.344;2023-03-14T06:42:38;94598.81;;;7.87;45.29
12219;BME280;6172;42.646;23.344;2023-03-14T06:45:06;94600.97;;;8.06;45.01
12219;BME280;6172;42.646;23.344;2023-03-14T06:47:34;94587.78;;;8.93;42.85
12219;BME280;6172;42.646;23.344;2023-03-14T06:50:01;94579.41;;;8.40;44.14
12219;BME280;6172;42.646;23.344;2023-03-14T06:52:28;94585.00;;;8.63;43.35
12219;BME280;6172;42.646;23.344;2023-03-14T06:54:55;94577.81;;;9.73;42.59
12219;BME280;6172;42.646;23.344;2023-03-14T06:57:22;94581.19;;;10.10;41.19
12219;BME280;6172;42.646;23.344;2023-03-14T06:59:49;94575.72;;;8.60;43.83
12219;BME280;6172;42.646;23.344;2023-03-14T07:02:16;94576.44;;;8.64;43.34
12219;BME280;6172;42.646;23.344;2023-03-14T07:04:44;94569.66;;;8.83;42.64
12219;BME280;6172;42.646;23.344;2023-03-14T07:07:11;94567.47;;;9.04;43.25
12219;BME280;6172;42.646;23.344;2023-03-14T07:09:38;94560.50;;;10.59;39.79
12219;BME280;6172;42.646;23.344;2023-03-14T07:12:05;94560.72;;;10.49;39.62
12219;BME280;6172;42.646;23.344;2023-03-14T07:14:32;94550.91;;;9.52;40.30
12219;BME280;6172;42.646;23.344;2023-03-14T07:16:59;94556.13;;;7.87;44.07
12219;BME280;6172;42.646;23.344;2023-03-14T07:19:25;94559.81;;;7.67;45.13
12219;BME280;6172;42.646;23.344;2023-03-14T07:21:55;94556.00;;;8.08;44.21
12219;BME280;6172;42.646;23.344;2023-03-14T07:24:22;94566.16;;;7.39;44.84
12219;BME280;6172;42.646;23.344;2023-03-14T07:26:49;94560.88;;;7.76;44.50
12219;BME280;6172;42.646;23.344;2023-03-14T07:29:16;94558.59;;;8.19;43.23
12219;BME280;6172;42.646;23.344;2023-03-14T07:31:43;94550.75;;;9.06;41.61
12219;BME280;6172;42.646;23.344;2023-03-14T07:34:10;94547.31;;;9.85;38.99
12219;BME280;6172;42.646;23.344;2023-03-14T07:36:36;94553.09;;;10.40;37.79
12219;BME280;6172;42.646;23.344;2023-03-14T07:39:05;94543.34;;;10.16;37.53
12219;BME280;6172;42.646;23.344;2023-03-14T07:41:32;94549.03;;;10.02;38.51
12219;BME280;6172;42.646;23.344;2023-03-14T07:43:59;94533.63;;;9.92;39.64
12219;BME280;6172;42.646;23.344;2023-03-14T07:46:26;94535.50;;;9.42;38.76
12219;BME280;6172;42.646;23.344;2023-03-14T07:48:53;94531.03;;;8.98;39.87
12219;BME280;6172;42.646;23.344;2023-03-14T07:51:21;94538.75;;;9.60;38.85
12219;BME280;6172;42.646;23.344;2023-03-14T07:53:47;94532.38;;;9.70;39.44
12219;BME280;6172;42.646;23.344;2023-03-14T07:56:16;94534.34;;;10.19;37.98
12219;BME280;6172;42.646;23.344;2023-03-14T07:58:42;94527.94;;;10.52;37.87
12219;BME280;6172;42.646;23.344;2023-03-14T08:01:09;94526.19;;;10.42;37.86
12219;BME280;6172;42.646;23.344;2023-03-14T08:03:36;94522.41;;;10.79;37.43
12219;BME280;6172;42.646;23.344;2023-03-14T08:06:03;94523.09;;;11.02;37.17
12219;BME280;6172;42.646;23.344;2023-03-14T08:08:30;94521.34;;;11.31;36.21
12219;BME280;6172;42.646;23.344;2023-03-14T08:11:02;94524.47;;;8.96;38.92
12219;BME280;6172;42.646;23.344;2023-03-14T08:13:31;94520.97;;;8.95;40.36
12219;BME280;6172;42.646;23.344;2023-03-14T08:15:58;94521.44;;;9.20;39.96
12219;BME280;6172;42.646;23.344;2023-03-14T08:18:25;94528.09;;;9.16;40.15
12219;BME280;6172;42.646;23.344;2023-03-14T08:20:52;94518.53;;;10.33;38.40
12219;BME280;6172;42.646;23.344;2023-03-14T08:23:19;94523.72;;;10.90;37.32
12219;BME280;6172;42.646;23.344;2023-03-14T08:25:48;94521.56;;;10.82;37.24
12219;BME280;6172;42.646;23.344;2023-03-14T08:28:15;94510.72;;;10.78;37.34
12219;BME280;6172;42.646;23.344;2023-03-14T08:30:44;94517.00;;;11.14;36.48
12219;BME280;6172;42.646;23.344;2023-03-14T08:33:11;94518.63;;;11.12;36.54
12219;BME280;6172;42.646;23.344;2023-03-14T08:35:38;94514.13;;;11.76;36.42
12219;BME280;6172;42.646;23.344;2023-03-14T08:38:05;94507.09;;;11.75;34.80
12219;BME280;6172;42.646;23.344;2023-03-14T08:40:32;94511.75;;;11.04;35.91
12219;BME280;6172;42.646;23.344;2023-03-14T08:42:58;94504.94;;;10.96;36.40
12219;BME280;6172;42.646;23.344;2023-03-14T08:45:26;94496.09;;;11.63;35.68
12219;BME280;6172;42.646;23.344;2023-03-14T08:47:54;94494.75;;;11.35;35.64
12219;BME280;6172;42.646;23.344;2023-03-14T08:50:21;94480.38;;;11.35;35.08
12219;BME280;6172;42.646;23.344;2023-03-14T08:52:49;94486.50;;;11.39;35.22
12219;BME280;6172;42.646;23.344;2023-03-14T08:55:16;94484.50;;;11.04;35.42
12219;BME280;6172;42.646;23.344;2023-03-14T08:57:43;94476.53;;;11.48;35.19
12219;BME280;6172;42.646;23.344;2023-03-14T09:00:11;94472.66;;;11.81;34.62
12219;BME280;6172;42.646;23.344;2023-03-14T09:02:40;94467.53;;;11.99;34.37
12219;BME280;6172;42.646;23.344;2023-03-14T09:05:10;94463.72;;;12.41;34.16
12219;BME280;6172;42.646;23.344;2023-03-14T09:07:37;94452.97;;;12.34;33.64
12219;BME280;6172;42.646;23.344;2023-03-14T09:10:06;94453.38;;;12.49;33.01
12219;BME280;6172;42.646;23.344;2023-03-14T09:12:34;94450.44;;;13.26;31.89
12219;BME280;6172;42.646;23.344;2023-03-14T09:15:01;94447.63;;;13.42;30.66
12219;BME280;6172;42.646;23.344;2023-03-14T09:17:28;94440.06;;;12.80;31.00
12219;BME280;6172;42.646;23.344;2023-03-14T09:19:55;94430.81;;;12.61;31.70
12219;BME280;6172;42.646;23.344;2023-03-14T09:22:24;94435.31;;;12.51;32.31
12219;BME280;6172;42.646;23.344;2023-03-14T09:24:51;94422.56;;;11.88;32.70
12219;BME280;6172;42.646;23.344;2023-03-14T09:27:18;94421.09;;;11.35;34.03
12219;BME280;6172;42.646;23.344;2023-03-14T09:29:48;94411.53;;;11.91;34.21
12219;BME280;6172;42.646;23.344;2023-03-14T09:32:17;94408.09;;;12.77;32.56
12219;BME280;6172;42.646;23.344;2023-03-14T09:34:44;94404.53;;;13.05;31.88
12219;BME280;6172;42.646;23.344;2023-03-14T09:37:12;94399.06;;;12.92;31.88
12219;BME280;6172;42.646;23.344;2023-03-14T09:39:42;94395.03;;;13.09;31.47
12219;BME280;6172;42.646;23.344;2023-03-14T09:42:14;94387.88;;;12.74;32.08
12219;BME280;6172;42.646;23.344;2023-03-14T09:44:52;94386.06;;;13.59;31.03
12219;BME280;6172;42.646;23.344;2023-03-14T09:47:24;94381.47;;;13.56;30.38
12219;BME280;6172;42.646;23.344;2023-03-14T09:49:52;94370.63;;;13.27;30.99
12219;BME280;6172;42.646;23.344;2023-03-14T09:52:23;94378.25;;;12.95;31.13
12219;BME280;6172;42.646;23.344;2023-03-14T09:54:58;94365.47;;;12.92;31.71
12219;BME280;6172;42.646;23.344;2023-03-14T09:57:32;94361.28;;;11.89;32.67
12219;BME280;6172;42.646;23.344;2023-03-14T10:00:03;94368.22;;;12.22;31.95
12219;BME280;6172;42.646;23.344;2023-03-14T10:02:38;94361.25;;;11.60;33.44
12219;BME280;6172;42.646;23.344;2023-03-14T10:05:14;94349.13;;;12.06;33.02
12219;BME280;6172;42.646;23.344;2023-03-14T10:07:41;94350.72;;;13.02;32.81
12219;BME280;6172;42.646;23.344;2023-03-14T10:10:15;94343.28;;;13.15;31.97
12219;BME280;6172;42.646;23.344;2023-03-14T10:12:55;94338.72;;;13.71;31.87
12219;BME280;6172;42.646;23.344;2023-03-14T10:15:25;94331.88;;;14.00;30.94
12219;BME280;6172;42.646;23.344;2023-03-14T10:17:52;94332.72;;;13.63;30.97
12219;BME280;6172;42.646;23.344;2023-03-14T10:20:30;94323.41;;;13.61;31.07
12219;BME280;6172;42.646;23.344;2023-03-14T10:22:59;94320.84;;;14.13;31.38
12219;BME280;6172;42.646;23.344;2023-03-14T10:25:29;94318.44;;;12.84;31.82
12219;BME280;6172;42.646;23.344;2023-03-14T10:27:57;94300.34;;;12.20;33.04
12219;BME280;6172;42.646;23.344;2023-03-14T10:30:32;94295.59;;;12.49;33.68
12219;BME280;6172;42.646;23.344;2023-03-14T10:33:08;94289.34;;;13.49;31.95
12219;BME280;6172;42.646;23.344;2023-03-14T10:35:35;94280.25;;;13.65;31.90
12219;BME280;6172;42.646;23.344;2023-03-14T10:38:03;94280.91;;;13.69;31.81
12219;BME280;6172;42.646;23.344;2023-03-14T10:40:34;94273.19;;;13.30;32.34
12219;BME280;6172;42.646;23.344;2023-03-14T10:43:05;94268.28;;;13.37;32.56
12219;BME280;6172;42.646;23.344;2023-03-14T10:45:36;94256.59;;;12.99;33.32
12219;BME280;6172;42.646;23.344;2023-03-14T10:48:25;94254.34;;;12.31;34.63
12219;BME280;6172;42.646;23.344;2023-03-14T10:51:03;94239.84;;;13.10;33.40
12219;BME280;6172;42.646;23.344;2023-03-14T10:53:43;94234.13;;;13.29;34.23
12219;BME280;6172;42.646;23.344;2023-03-14T10:56:18;94238.84;;;14.18;32.89
12219;BME280;6172;42.646;23.344;2023-03-14T10:58:47;94217.59;;;13.67;33.19
12219;BME280;6172;42.646;23.344;2023-03-14T11:01:37;94205.81;;;14.22;32.96
12219;BME280;6172;42.646;23.344;2023-03-14T11:04:18;94213.69;;;14.72;32.26
12219;BME280;6172;42.646;23.344;2023-03-14T11:06:50;94210.06;;;14.44;32.70
12219;BME280;6172;42.646;23.344;2023-03-14T11:12:27;94186.78;;;14.79;32.02
12219;BME280;6172;42.646;23.344;2023-03-14T11:15:02;94183.25;;;14.79;32.45
12219;BME280;6172;42.646;23.344;2023-03-14T11:17:38;94180.97;;;14.47;33.26
12219;BME280;6172;42.646;23.344;2023-03-14T11:20:22;94168.53;;;14.55;32.76
12219;BME280;6172;42.646;23.344;2023-03-14T11:22:59;94156.88;;;14.72;31.98
12219;BME280;6172;42.646;23.344;2023-03-14T11:25:33;94159.59;;;13.81;33.34
12219;BME280;6172;42.646;23.344;2023-03-14T11:28:10;94144.22;;;14.05;32.77
12219;BME280;6172;42.646;23.344;2023-03-14T11:30:50;94135.50;;;14.67;31.97
12219;BME280;6172;42.646;23.344;2023-03-14T11:33:21;94131.50;;;13.89;32.28
12219;BME280;6172;42.646;23.344;2023-03-14T11:35:57;94121.94;;;13.94;32.70
12219;BME280;6172;42.646;23.344;2023-03-14T11:38:31;94106.38;;;14.61;31.27
12219;BME280;6172;42.646;23.344;2023-03-14T11:41:04;94116.03;;;14.74;31.48
12219;BME280;6172;42.646;23.344;2023-03-14T11:43:40;94110.97;;;16.26;29.84
12219;BME280;6172;42.646;23.344;2023-03-14T11:46:13;94105.81;;;17.31;28.41
12219;BME280;6172;42.646;23.344;2023-03-14T11:48:44;94099.69;;;18.04;27.33
12219;BME280;6172;42.646;23.344;2023-03-14T11:51:21;94083.38;;;18.64;25.84
12219;BME280;6172;42.646;23.344;2023-03-14T11:53:57;94077.41;;;18.51;26.18
12219;BME280;6172;42.646;23.344;2023-03-14T11:56:32;94077.72;;;17.80;26.66
12219;BME280;6172;42.646;23.344;2023-03-14T11:59:04;94079.22;;;17.67;26.42
12219;BME280;6172;42.646;23.344;2023-03-14T12:01:41;94065.47;;;17.43;27.23
12219;BME280;6172;42.646;23.344;2023-03-14T12:04:22;94065.09;;;17.36;26.99
12219;BME280;6172;42.646;23.344;2023-03-14T12:06:56;94069.41;;;16.89;26.90
12219;BME280;6172;42.646;23.344;2023-03-14T12:09:23;94047.59;;;16.77;27.62
12219;BME280;6172;42.646;23.344;2023-03-14T12:11:53;94055.13;;;16.76;28.06
12219;BME280;6172;42.646;23.344;2023-03-14T12:14:25;94047.63;;;15.16;29.93
12219;BME280;6172;42.646;23.344;2023-03-14T12:16:55;94036.00;;;15.57;29.76
12219;BME280;6172;42.646;23.344;2023-03-14T12:19:35;94039.41;;;16.03;29.20
12219;BME280;6172;42.646;23.344;2023-03-14T12:22:24;94017.91;;;15.92;28.71
12219;BME280;6172;42.646;23.344;2023-03-14T12:24:57;94021.97;;;16.15;28.56
12219;BME280;6172;42.646;23.344;2023-03-14T12:27:43;94018.75;;;16.16;28.36
12219;BME280;6172;42.646;23.344;2023-03-14T12:30:24;94013.06;;;15.87;29.00
12219;BME280;6172;42.646;23.344;2023-03-14T12:36:18;94006.13;;;15.41;29.17
12219;BME280;6172;42.646;23.344;2023-03-14T12:39:13;94012.53;;;16.39;28.29
12219;BME280;6172;42.646;23.344;2023-03-14T12:41:50;93999.19;;;16.14;28.21
12219;BME280;6172;42.646;23.344;2023-03-14T12:44:46;93989.41;;;16.46;28.49
12219;BME280;6172;42.646;23.344;2023-03-14T12:47:52;93986.63;;;16.22;27.89
12219;BME280;6172;42.646;23.344;2023-03-14T12:50:25;93985.50;;;16.05;28.62
12219;BME280;6172;42.646;23.344;2023-03-14T12:55:46;93980.44;;;15.62;28.74
12219;BME280;6172;42.646;23.344;2023-03-14T12:58:23;93964.25;;;15.14;29.33
12219;BME280;6172;42.646;23.344;2023-03-14T13:00:56;93955.56;;;15.66;28.73
12219;BME280;6172;42.646;23.344;2023-03-14T13:03:37;93964.28;;;15.64;28.55
12219;BME280;6172;42.646;23.344;2023-03-14T13:06:05;93959.97;;;15.22;29.22
12219;BME280;6172;42.646;23.344;2023-03-14T13:08:38;93959.69;;;15.61;28.62
12219;BME280;6172;42.646;23.344;2023-03-14T13:11:09;93958.22;;;15.93;27.83
12219;BME280;6172;42.646;23.344;2023-03-14T13:13:45;93942.75;;;16.04;28.12
12219;BME280;6172;42.646;23.344;2023-03-14T13:16:24;93933.75;;;16.51;27.58
12219;BME280;6172;42.646;23.344;2023-03-14T13:19:03;93940.88;;;16.10;27.88
12219;BME280;6172;42.646;23.344;2023-03-14T13:24:27;93924.28;;;16.28;27.48
12219;BME280;6172;42.646;23.344;2023-03-14T13:26:56;93922.72;;;16.36;26.95
12219;BME280;6172;42.646;23.344;2023-03-14T13:29:25;93916.44;;;16.12;27.09